sensor_id;sensor_type;location;lat;lon;timestamp;P1;durP1;ratioP1;P2;durP2;ratioP2
20290;SDS011;10304;51.074;13.754;2024-01-15T00:00:21;15.23;;;7.35;;
20290;SDS011;10304;51.074;13.754;2024-01-15T00:02:48;11.02;;;6.13;;
20290;SDS011;10304;51.074;13.754;2024-01-15T00:05:15;13.57;;;7.20;;
20290;SDS011;10304;51.074;13.754;2024-01-15T00:07:42;10.57;;;6.70;;
20290;SDS011;10304;51.074;13.754;2024-01-15T00:10:08;12.68;;;6.90;;
20290;SDS011;10304;51.074;13.754;2024-01-15T00:12:35;13.70;;;7.68;;
20290;SDS011;10304;51.074;13.754;2024-01-15T00:15:02;13.53;;;7.20;;
20290;SDS011;10304;51.074;13.754;2024-01-15T00:17:29;12.63;;;7.50;;
20290;SDS011;10304;51.074;13.754;2024-01-15T00:19:56;14.38;;;7.38;;
20290;SDS011;10304;51.074;13.754;2024-01-15T00:22:25;12.53;;;7.40;;
20290;SDS011;10304;51.074;13.754;2024-01-15T00:24:52;12.30;;;6.87;;
20290;SDS011;10304;51.074;13.754;2024-01-15T00:27:19;12.98;;;7.18;;
20290;SDS011;10304;51.074;13.754;2024-01-15T00:29:45;13.27;;;6.43;;
20290;SDS011;10304;51.074;13.754;2024-01-15T00:32:12;12.60;;;7.23;;
20290;SDS011;10304;51.074;13.754;2024-01-15T00:34:39;11.47;;;7.10;;
20290;SDS011;10304;51.074;13.754;2024-01-15T00:37:06;13.30;;;7.50;;
20290;SDS011;10304;51.074;13.754;2024-01-15T00:39:33;12.33;;;6.77;;
20290;SDS011;10304;51.074;13.754;2024-01-15T00:42:00;12.60;;;7.10;;
20290;SDS011;10304;51.074;13.754;2024-01-15T00:44:27;11.97;;;7.00;;
20290;SDS011;10304;51.074;13.754;2024-01-15T00:46:53;13.97;;;7.40;;
20290;SDS011;10304;51.074;13.754;2024-01-15T00:49:20;14.27;;;6.90;;
20290;SDS011;10304;51.074;13.754;2024-01-15T00:51:47;11.70;;;6.95;;
20290;SDS011;10304;51.074;13.754;2024-01-15T00:54:14;13.73;;;6.90;;
20290;SDS011;10304;51.074;13.754;2024-01-15T00:56:41;12.20;;;7.30;;
20290;SDS011;10304;51.074;13.754;2024-01-15T00:59:07;11.73;;;7.40;;
20290;SDS011;10304;51.074;13.754;2024-01-15T01:01:36;11.98;;;7.35;;
20290;SDS011;10304;51.074;13.754;2024-01-15T01:04:04;13.10;;;7.40;;
20290;SDS011;10304;51.074;13.754;2024-01-15T01:06:31;12.67;;;6.97;;
20290;SDS011;10304;51.074;13.754;2024-01-15T01:08:59;14.37;;;7.50;;
20290;SDS011;10304;51.074;13.754;2024-01-15T01:11:26;10.77;;;6.73;;
20290;SDS011;10304;51.074;13.754;2024-01-15T01:13:53;13.50;;;7.80;;
20290;SDS011;10304;51.074;13.754;2024-01-15T01:16:20;10.50;;;6.55;;
20290;SDS011;10304;51.074;13.754;2024-01-15T01:18:46;13.23;;;7.65;;
20290;SDS011;10304;51.074;13.754;2024-01-15T01:21:14;11.55;;;6.97;;
20290;SDS011;10304;51.074;13.754;2024-01-15T01:23:41;12.98;;;7.70;;
20290;SDS011;10304;51.074;13.754;2024-01-15T01:26:08;12.73;;;7.15;;
20290;SDS011;10304;51.074;13.754;2024-01-15T01:28:35;13.30;;;7.77;;
20290;SDS011;10304;51.074;13.754;2024-01-15T01:31:02;13.60;;;8.13;;
20290;SDS011;10304;51.074;13.754;2024-01-15T01:33:29;12.97;;;7.60;;
20290;SDS011;10304;51.074;13.754;2024-01-15T01:35:56;13.60;;;8.23;;
20290;SDS011;10304;51.074;13.754;2024-01-15T01:38:22;13.85;;;7.50;;
20290;SDS011;10304;51.074;13.754;2024-01-15T01:40:49;13.35;;;8.02;;
20290;SDS011;10304;51.074;13.754;2024-01-15T01:43:16;13.60;;;8.50;;
20290;SDS011;10304;51.074;13.754;2024-01-15T01:45:43;13.00;;;7.53;;
20290;SDS011;10304;51.074;13.754;2024-01-15T01:48:09;14.40;;;7.93;;
20290;SDS011;10304;51.074;13.754;2024-01-15T01:50:36;15.30;;;8.27;;
20290;SDS011;10304;51.074;13.754;2024-01-15T01:53:03;15.97;;;8.47;;
20290;SDS011;10304;51.074;13.754;2024-01-15T01:55:30;14.77;;;8.30;;
20290;SDS011;10304;51.074;13.754;2024-01-15T01:57:59;14.15;;;7.65;;
20290;SDS011;10304;51.074;13.754;2024-01-15T02:00:27;14.13;;;8.40;;
20290;SDS011;10304;51.074;13.754;2024-01-15T02:02:53;15.63;;;8.87;;
20290;SDS011;10304;51.074;13.754;2024-01-15T02:05:20;15.73;;;8.27;;
20290;SDS011;10304;51.074;13.754;2024-01-15T02:07:49;14.35;;;8.23;;
20290;SDS011;10304;51.074;13.754;2024-01-15T02:10:16;13.03;;;7.43;;
20290;SDS011;10304;51.074;13.754;2024-01-15T02:12:43;14.63;;;7.88;;
20290;SDS011;10304;51.074;13.754;2024-01-15T02:15:11;14.13;;;7.82;;
20290;SDS011;10304;51.074;13.754;2024-01-15T02:20:29;16.33;;;7.80;;
20290;SDS011;10304;51.074;13.754;2024-01-15T02:23:07;14.60;;;8.10;;
20290;SDS011;10304;51.074;13.754;2024-01-15T02:25:38;13.77;;;8.00;;
20290;SDS011;10304;51.074;13.754;2024-01-15T02:28:07;13.20;;;8.23;;
20290;SDS011;10304;51.074;13.754;2024-01-15T02:30:36;14.60;;;8.50;;
20290;SDS011;10304;51.074;13.754;2024-01-15T02:33:08;16.37;;;8.90;;
20290;SDS011;10304;51.074;13.754;2024-01-15T02:35:35;14.83;;;8.23;;
20290;SDS011;10304;51.074;13.754;2024-01-15T02:38:03;16.63;;;8.83;;
20290;SDS011;10304;51.074;13.754;2024-01-15T02:40:30;15.97;;;8.30;;
20290;SDS011;10304;51.074;13.754;2024-01-15T02:42:57;14.10;;;8.23;;
20290;SDS011;10304;51.074;13.754;2024-01-15T02:45:24;15.43;;;8.77;;
20290;SDS011;10304;51.074;13.754;2024-01-15T02:47:51;16.77;;;8.90;;
20290;SDS011;10304;51.074;13.754;2024-01-15T02:50:18;14.50;;;7.97;;
20290;SDS011;10304;51.074;13.754;2024-01-15T02:52:44;14.40;;;8.20;;
20290;SDS011;10304;51.074;13.754;2024-01-15T02:55:11;14.90;;;9.30;;
20290;SDS011;10304;51.074;13.754;2024-01-15T02:57:38;16.23;;;9.77;;
20290;SDS011;10304;51.074;13.754;2024-01-15T03:00:05;14.43;;;8.40;;
20290;SDS011;10304;51.074;13.754;2024-01-15T03:02:36;15.27;;;8.93;;
20290;SDS011;10304;51.074;13.754;2024-01-15T03:05:09;15.80;;;9.03;;
20290;SDS011;10304;51.074;13.754;2024-01-15T03:07:36;15.53;;;8.40;;
20290;SDS011;10304;51.074;13.754;2024-01-15T03:10:02;14.40;;;8.70;;
20290;SDS011;10304;51.074;13.754;2024-01-15T03:12:30;17.17;;;9.40;;
20290;SDS011;10304;51.074;13.754;2024-01-15T03:14:58;15.57;;;9.07;;
20290;SDS011;10304;51.074;13.754;2024-01-15T03:17:24;16.40;;;9.20;;
20290;SDS011;10304;51.074;13.754;2024-01-15T03:19:51;16.50;;;9.00;;
20290;SDS011;10304;51.074;13.754;2024-01-15T03:22:18;16.35;;;8.98;;
20290;SDS011;10304;51.074;13.754;2024-01-15T03:24:45;16.20;;;8.93;;
20290;SDS011;10304;51.074;13.754;2024-01-15T03:27:12;17.37;;;9.30;;
20290;SDS011;10304;51.074;13.754;2024-01-15T03:29:39;16.87;;;9.60;;
20290;SDS011;10304;51.074;13.754;2024-01-15T03:32:07;17.10;;;9.50;;
20290;SDS011;10304;51.074;13.754;2024-01-15T03:34:33;17.73;;;9.77;;
20290;SDS011;10304;51.074;13.754;2024-01-15T03:37:00;18.77;;;10.40;;
20290;SDS011;10304;51.074;13.754;2024-01-15T03:39:27;17.93;;;9.87;;
20290;SDS011;10304;51.074;13.754;2024-01-15T03:41:54;16.17;;;9.40;;
20290;SDS011;10304;51.074;13.754;2024-01-15T03:44:21;18.03;;;9.53;;
20290;SDS011;10304;51.074;13.754;2024-01-15T03:46:48;16.40;;;9.30;;
20290;SDS011;10304;51.074;13.754;2024-01-15T03:49:15;19.00;;;10.73;;
20290;SDS011;10304;51.074;13.754;2024-01-15T03:51:42;21.53;;;10.97;;
20290;SDS011;10304;51.074;13.754;2024-01-15T03:54:08;18.37;;;10.70;;
20290;SDS011;10304;51.074;13.754;2024-01-15T03:56:35;21.10;;;11.00;;
20290;SDS011;10304;51.074;13.754;2024-01-15T03:59:02;20.20;;;11.30;;
20290;SDS011;10304;51.074;13.754;2024-01-15T04:01:29;26.10;;;11.30;;
20290;SDS011;10304;51.074;13.754;2024-01-15T04:03:56;19.47;;;10.80;;
20290;SDS011;10304;51.074;13.754;2024-01-15T04:06:22;18.13;;;10.30;;
20290;SDS011;10304;51.074;13.754;2024-01-15T04:08:49;18.47;;;9.90;;
20290;SDS011;10304;51.074;13.754;2024-01-15T04:11:16;19.60;;;10.03;;
20290;SDS011;10304;51.074;13.754;2024-01-15T04:13:43;17.40;;;9.63;;
20290;SDS011;10304;51.074;13.754;2024-01-15T04:16:09;17.23;;;9.73;;
20290;SDS011;10304;51.074;13.754;2024-01-15T04:18:36;16.73;;;9.23;;
20290;SDS011;10304;51.074;13.754;2024-01-15T04:21:06;14.07;;;8.87;;
20290;SDS011;10304;51.074;13.754;2024-01-15T04:23:33;19.10;;;10.00;;
20290;SDS011;10304;51.074;13.754;2024-01-15T04:25:59;18.00;;;10.00;;
20290;SDS011;10304;51.074;13.754;2024-01-15T04:28:26;14.57;;;8.80;;
20290;SDS011;10304;51.074;13.754;2024-01-15T04:30:53;17.70;;;9.97;;
20290;SDS011;10304;51.074;13.754;2024-01-15T04:33:20;17.13;;;9.03;;
20290;SDS011;10304;51.074;13.754;2024-01-15T04:35:47;22.30;;;9.93;;
20290;SDS011;10304;51.074;13.754;2024-01-15T04:38:13;17.73;;;9.40;;
20290;SDS011;10304;51.074;13.754;2024-01-15T04:40:40;19.27;;;9.43;;
20290;SDS011;10304;51.074;13.754;2024-01-15T04:43:07;17.23;;;9.70;;
20290;SDS011;10304;51.074;13.754;2024-01-15T04:45:34;18.27;;;9.37;;
20290;SDS011;10304;51.074;13.754;2024-01-15T04:48:01;21.20;;;9.80;;
20290;SDS011;10304;51.074;13.754;2024-01-15T04:50:28;17.60;;;9.13;;
20290;SDS011;10304;51.074;13.754;2024-01-15T04:52:54;16.97;;;9.40;;
20290;SDS011;10304;51.074;13.754;2024-01-15T04:55:21;17.67;;;9.37;;
20290;SDS011;10304;51.074;13.754;2024-01-15T04:57:48;20.37;;;9.50;;
20290;SDS011;10304;51.074;13.754;2024-01-15T05:00:15;18.70;;;9.33;;
20290;SDS011;10304;51.074;13.754;2024-01-15T05:02:42;17.10;;;9.47;;
20290;SDS011;10304;51.074;13.754;2024-01-15T05:05:09;16.40;;;9.50;;
20290;SDS011;10304;51.074;13.754;2024-01-15T05:07:36;16.47;;;9.27;;
20290;SDS011;10304;51.074;13.754;2024-01-15T05:10:02;18.00;;;10.23;;
20290;SDS011;10304;51.074;13.754;2024-01-15T05:12:30;17.50;;;9.37;;
20290;SDS011;10304;51.074;13.754;2024-01-15T05:14:57;19.47;;;9.40;;
20290;SDS011;10304;51.074;13.754;2024-01-15T05:17:24;17.70;;;9.97;;
20290;SDS011;10304;51.074;13.754;2024-01-15T05:19:50;20.43;;;10.17;;
20290;SDS011;10304;51.074;13.754;2024-01-15T05:22:18;17.43;;;9.27;;
20290;SDS011;10304;51.074;13.754;2024-01-15T05:24:44;18.97;;;9.10;;
20290;SDS011;10304;51.074;13.754;2024-01-15T05:27:11;15.53;;;8.93;;
20290;SDS011;10304;51.074;13.754;2024-01-15T05:29:38;18.33;;;9.47;;
20290;SDS011;10304;51.074;13.754;2024-01-15T05:32:05;17.53;;;9.63;;
20290;SDS011;10304;51.074;13.754;2024-01-15T05:34:31;16.83;;;9.20;;
20290;SDS011;10304;51.074;13.754;2024-01-15T05:36:58;17.10;;;10.23;;
20290;SDS011;10304;51.074;13.754;2024-01-15T05:39:25;17.67;;;9.40;;
20290;SDS011;10304;51.074;13.754;2024-01-15T05:41:52;16.80;;;9.33;;
20290;SDS011;10304;51.074;13.754;2024-01-15T05:44:19;18.90;;;10.00;;
20290;SDS011;10304;51.074;13.754;2024-01-15T05:46:46;17.23;;;8.83;;
20290;SDS011;10304;51.074;13.754;2024-01-15T05:49:13;19.47;;;9.00;;
20290;SDS011;10304;51.074;13.754;2024-01-15T05:51:40;16.80;;;8.67;;
20290;SDS011;10304;51.074;13.754;2024-01-15T05:54:07;19.27;;;9.47;;
20290;SDS011;10304;51.074;13.754;2024-01-15T05:56:34;17.57;;;9.43;;
20290;SDS011;10304;51.074;13.754;2024-01-15T05:59:01;20.97;;;9.13;;
20290;SDS011;10304;51.074;13.754;2024-01-15T06:01:27;20.13;;;9.50;;
20290;SDS011;10304;51.074;13.754;2024-01-15T06:03:54;18.70;;;9.80;;
20290;SDS011;10304;51.074;13.754;2024-01-15T06:06:21;20.13;;;10.37;;
20290;SDS011;10304;51.074;13.754;2024-01-15T06:08:48;15.83;;;8.40;;
20290;SDS011;10304;51.074;13.754;2024-01-15T06:11:15;18.53;;;9.80;;
20290;SDS011;10304;51.074;13.754;2024-01-15T06:13:41;15.90;;;8.60;;
20290;SDS011;10304;51.074;13.754;2024-01-15T06:16:13;17.83;;;8.50;;
20290;SDS011;10304;51.074;13.754;2024-01-15T06:18:41;15.07;;;8.43;;
20290;SDS011;10304;51.074;13.754;2024-01-15T06:21:08;15.33;;;7.10;;
20290;SDS011;10304;51.074;13.754;2024-01-15T06:23:37;13.63;;;7.40;;
20290;SDS011;10304;51.074;13.754;2024-01-15T06:26:04;16.67;;;7.97;;
20290;SDS011;10304;51.074;13.754;2024-01-15T06:28:31;14.43;;;8.23;;
20290;SDS011;10304;51.074;13.754;2024-01-15T06:30:58;16.23;;;9.00;;
20290;SDS011;10304;51.074;13.754;2024-01-15T06:33:25;16.83;;;8.10;;
20290;SDS011;10304;51.074;13.754;2024-01-15T06:35:52;15.47;;;8.07;;
20290;SDS011;10304;51.074;13.754;2024-01-15T06:38:18;15.00;;;8.80;;
20290;SDS011;10304;51.074;13.754;2024-01-15T06:40:45;15.17;;;8.17;;
20290;SDS011;10304;51.074;13.754;2024-01-15T06:43:18;15.90;;;8.47;;
20290;SDS011;10304;51.074;13.754;2024-01-15T06:45:44;16.50;;;7.90;;
20290;SDS011;10304;51.074;13.754;2024-01-15T06:48:11;13.27;;;7.50;;
20290;SDS011;10304;51.074;13.754;2024-01-15T06:50:42;13.83;;;7.77;;
20290;SDS011;10304;51.074;13.754;2024-01-15T06:53:10;19.53;;;10.40;;
20290;SDS011;10304;51.074;13.754;2024-01-15T06:55:37;12.37;;;6.80;;
20290;SDS011;10304;51.074;13.754;2024-01-15T06:58:05;12.07;;;7.10;;
20290;SDS011;10304;51.074;13.754;2024-01-15T07:00:31;14.93;;;7.30;;
20290;SDS011;10304;51.074;13.754;2024-01-15T07:02:58;15.20;;;7.73;;
20290;SDS011;10304;51.074;13.754;2024-01-15T07:05:25;13.43;;;7.50;;
20290;SDS011;10304;51.074;13.754;2024-01-15T07:07:52;13.37;;;7.40;;
20290;SDS011;10304;51.074;13.754;2024-01-15T07:10:19;12.97;;;7.37;;
20290;SDS011;10304;51.074;13.754;2024-01-15T07:12:46;14.13;;;6.90;;
20290;SDS011;10304;51.074;13.754;2024-01-15T07:15:13;13.87;;;6.90;;
20290;SDS011;10304;51.074;13.754;2024-01-15T07:17:41;11.87;;;6.83;;
20290;SDS011;10304;51.074;13.754;2024-01-15T07:20:09;13.30;;;7.20;;
20290;SDS011;10304;51.074;13.754;2024-01-15T07:22:36;14.70;;;8.20;;
20290;SDS011;10304;51.074;13.754;2024-01-15T07:25:04;11.33;;;6.23;;
20290;SDS011;10304;51.074;13.754;2024-01-15T07:27:31;15.33;;;7.97;;
20290;SDS011;10304;51.074;13.754;2024-01-15T07:29:58;13.97;;;6.83;;
20290;SDS011;10304;51.074;13.754;2024-01-15T07:32:28;12.63;;;6.57;;
20290;SDS011;10304;51.074;13.754;2024-01-15T07:34:55;14.73;;;7.23;;
20290;SDS011;10304;51.074;13.754;2024-01-15T07:37:23;12.87;;;6.93;;
20290;SDS011;10304;51.074;13.754;2024-01-15T07:39:50;13.37;;;6.97;;
20290;SDS011;10304;51.074;13.754;2024-01-15T07:42:18;16.37;;;7.37;;
20290;SDS011;10304;51.074;13.754;2024-01-15T07:44:45;13.80;;;7.03;;
20290;SDS011;10304;51.074;13.754;2024-01-15T07:47:13;14.07;;;7.17;;
20290;SDS011;10304;51.074;13.754;2024-01-15T07:49:40;17.97;;;7.97;;
20290;SDS011;10304;51.074;13.754;2024-01-15T07:52:08;14.33;;;7.30;;
20290;SDS011;10304;51.074;13.754;2024-01-15T07:54:36;18.87;;;8.30;;
20290;SDS011;10304;51.074;13.754;2024-01-15T07:57:04;13.47;;;7.10;;
20290;SDS011;10304;51.074;13.754;2024-01-15T07:59:31;13.37;;;6.90;;
20290;SDS011;10304;51.074;13.754;2024-01-15T08:01:59;14.00;;;7.20;;
20290;SDS011;10304;51.074;13.754;2024-01-15T08:04:26;13.57;;;7.80;;
20290;SDS011;10304;51.074;13.754;2024-01-15T08:06:54;13.93;;;7.10;;
20290;SDS011;10304;51.074;13.754;2024-01-15T08:09:23;17.63;;;7.43;;
20290;SDS011;10304;51.074;13.754;2024-01-15T08:11:51;12.13;;;7.10;;
20290;SDS011;10304;51.074;13.754;2024-01-15T08:14:18;13.00;;;7.40;;
20290;SDS011;10304;51.074;13.754;2024-01-15T08:16:46;14.03;;;7.80;;
20290;SDS011;10304;51.074;13.754;2024-01-15T08:19:13;15.20;;;8.07;;
20290;SDS011;10304;51.074;13.754;2024-01-15T08:21:41;14.93;;;7.03;;
20290;SDS011;10304;51.074;13.754;2024-01-15T08:24:08;12.37;;;6.63;;
20290;SDS011;10304;51.074;13.754;2024-01-15T08:26:36;16.40;;;7.93;;
20290;SDS011;10304;51.074;13.754;2024-01-15T08:29:03;15.03;;;7.47;;
20290;SDS011;10304;51.074;13.754;2024-01-15T08:31:30;14.07;;;7.67;;
20290;SDS011;10304;51.074;13.754;2024-01-15T08:33:58;14.13;;;7.23;;
20290;SDS011;10304;51.074;13.754;2024-01-15T08:36:26;14.23;;;7.60;;
20290;SDS011;10304;51.074;13.754;2024-01-15T08:38:55;14.00;;;6.90;;
20290;SDS011;10304;51.074;13.754;2024-01-15T08:41:22;11.90;;;6.83;;
20290;SDS011;10304;51.074;13.754;2024-01-15T08:43:50;19.30;;;7.47;;
20290;SDS011;10304;51.074;13.754;2024-01-15T08:46:17;13.53;;;6.80;;
20290;SDS011;10304;51.074;13.754;2024-01-15T08:48:45;14.93;;;6.97;;
20290;SDS011;10304;51.074;13.754;2024-01-15T08:51:12;12.50;;;6.53;;
20290;SDS011;10304;51.074;13.754;2024-01-15T08:53:40;12.50;;;7.20;;
20290;SDS011;10304;51.074;13.754;2024-01-15T08:56:07;14.93;;;7.03;;
20290;SDS011;10304;51.074;13.754;2024-01-15T08:58:35;14.53;;;6.60;;
20290;SDS011;10304;51.074;13.754;2024-01-15T09:01:02;14.27;;;6.00;;
20290;SDS011;10304;51.074;13.754;2024-01-15T09:03:30;13.20;;;6.63;;
20290;SDS011;10304;51.074;13.754;2024-01-15T09:05:58;13.53;;;6.47;;
20290;SDS011;10304;51.074;13.754;2024-01-15T09:08:25;12.77;;;6.57;;
20290;SDS011;10304;51.074;13.754;2024-01-15T09:10:54;11.80;;;6.20;;
20290;SDS011;10304;51.074;13.754;2024-01-15T09:13:21;11.83;;;6.07;;
20290;SDS011;10304;51.074;13.754;2024-01-15T09:15:48;11.93;;;6.20;;
20290;SDS011;10304;51.074;13.754;2024-01-15T09:18:15;13.63;;;6.45;;
20290;SDS011;10304;51.074;13.754;2024-01-15T09:20:42;11.13;;;5.77;;
20290;SDS011;10304;51.074;13.754;2024-01-15T09:23:10;13.60;;;6.00;;
20290;SDS011;10304;51.074;13.754;2024-01-15T09:25:37;10.80;;;5.90;;
20290;SDS011;10304;51.074;13.754;2024-01-15T09:28:04;11.90;;;5.53;;
20290;SDS011;10304;51.074;13.754;2024-01-15T09:30:31;9.38;;;5.00;;
20290;SDS011;10304;51.074;13.754;2024-01-15T09:32:59;12.00;;;6.05;;
20290;SDS011;10304;51.074;13.754;2024-01-15T09:35:26;9.48;;;4.97;;
20290;SDS011;10304;51.074;13.754;2024-01-15T09:37:54;9.82;;;5.32;;
20290;SDS011;10304;51.074;13.754;2024-01-15T09:40:21;11.30;;;5.43;;
20290;SDS011;10304;51.074;13.754;2024-01-15T09:42:49;9.40;;;5.22;;
20290;SDS011;10304;51.074;13.754;2024-01-15T09:45:17;9.32;;;5.47;;
20290;SDS011;10304;51.074;13.754;2024-01-15T09:47:44;10.45;;;5.72;;
20290;SDS011;10304;51.074;13.754;2024-01-15T09:50:12;9.07;;;4.95;;
20290;SDS011;10304;51.074;13.754;2024-01-15T09:52:44;10.35;;;4.95;;
20290;SDS011;10304;51.074;13.754;2024-01-15T09:55:13;11.65;;;4.75;;
20290;SDS011;10304;51.074;13.754;2024-01-15T09:57:43;10.57;;;4.75;;
20290;SDS011;10304;51.074;13.754;2024-01-15T10:00:13;16.15;;;5.25;;
20290;SDS011;10304;51.074;13.754;2024-01-15T10:02:43;12.98;;;5.00;;
20290;SDS011;10304;51.074;13.754;2024-01-15T10:05:11;12.15;;;5.35;;
20290;SDS011;10304;51.074;13.754;2024-01-15T10:07:38;8.73;;;4.78;;
20290;SDS011;10304;51.074;13.754;2024-01-15T10:10:06;8.63;;;4.65;;
20290;SDS011;10304;51.074;13.754;2024-01-15T10:12:34;11.32;;;5.25;;
20290;SDS011;10304;51.074;13.754;2024-01-15T10:15:02;10.40;;;4.60;;
20290;SDS011;10304;51.074;13.754;2024-01-15T10:17:31;9.38;;;4.85;;
20290;SDS011;10304;51.074;13.754;2024-01-15T10:19:58;9.05;;;4.63;;
20290;SDS011;10304;51.074;13.754;2024-01-15T10:22:25;9.50;;;5.00;;
20290;SDS011;10304;51.074;13.754;2024-01-15T10:24:53;12.00;;;5.10;;
20290;SDS011;10304;51.074;13.754;2024-01-15T10:27:20;9.32;;;5.03;;
20290;SDS011;10304;51.074;13.754;2024-01-15T10:29:50;12.43;;;5.07;;
20290;SDS011;10304;51.074;13.754;2024-01-15T10:32:17;7.97;;;4.75;;
20290;SDS011;10304;51.074;13.754;2024-01-15T10:34:44;9.23;;;4.72;;
20290;SDS011;10304;51.074;13.754;2024-01-15T10:37:12;11.35;;;5.05;;
20290;SDS011;10304;51.074;13.754;2024-01-15T10:39:39;10.48;;;5.43;;
20290;SDS011;10304;51.074;13.754;2024-01-15T10:42:07;9.35;;;4.88;;
20290;SDS011;10304;51.074;13.754;2024-01-15T10:44:35;10.27;;;5.35;;
20290;SDS011;10304;51.074;13.754;2024-01-15T10:47:02;10.10;;;5.07;;
20290;SDS011;10304;51.074;13.754;2024-01-15T10:49:30;9.98;;;4.93;;
20290;SDS011;10304;51.074;13.754;2024-01-15T10:52:02;11.50;;;5.13;;
20290;SDS011;10304;51.074;13.754;2024-01-15T10:54:30;10.48;;;4.55;;
20290;SDS011;10304;51.074;13.754;2024-01-15T10:56:59;9.00;;;5.40;;
20290;SDS011;10304;51.074;13.754;2024-01-15T10:59:27;10.35;;;4.78;;
20290;SDS011;10304;51.074;13.754;2024-01-15T11:01:54;7.38;;;4.60;;
20290;SDS011;10304;51.074;13.754;2024-01-15T11:04:23;10.02;;;4.38;;
20290;SDS011;10304;51.074;13.754;2024-01-15T11:06:55;8.70;;;5.10;;
20290;SDS011;10304;51.074;13.754;2024-01-15T11:09:23;8.40;;;4.55;;
20290;SDS011;10304;51.074;13.754;2024-01-15T11:12:07;11.63;;;4.88;;
20290;SDS011;10304;51.074;13.754;2024-01-15T11:17:11;8.55;;;4.70;;
20290;SDS011;10304;51.074;13.754;2024-01-15T11:25:12;10.13;;;5.65;;
20290;SDS011;10304;51.074;13.754;2024-01-15T11:30:13;9.38;;;5.15;;
20290;SDS011;10304;51.074;13.754;2024-01-15T11:32:41;17.40;;;6.07;;
20290;SDS011;10304;51.074;13.754;2024-01-15T11:35:10;12.32;;;5.43;;
20290;SDS011;10304;51.074;13.754;2024-01-15T11:40:18;10.13;;;5.60;;
20290;SDS011;10304;51.074;13.754;2024-01-15T11:42:59;13.43;;;5.07;;
20290;SDS011;10304;51.074;13.754;2024-01-15T11:45:27;10.77;;;5.38;;
20290;SDS011;10304;51.074;13.754;2024-01-15T11:48:02;8.60;;;4.88;;
20290;SDS011;10304;51.074;13.754;2024-01-15T11:50:33;9.95;;;5.25;;
20290;SDS011;10304;51.074;13.754;2024-01-15T11:53:02;11.88;;;6.00;;
20290;SDS011;10304;51.074;13.754;2024-01-15T11:55:34;10.77;;;5.30;;
20290;SDS011;10304;51.074;13.754;2024-01-15T11:58:03;10.80;;;5.65;;
20290;SDS011;10304;51.074;13.754;2024-01-15T12:00:43;10.95;;;5.32;;
20290;SDS011;10304;51.074;13.754;2024-01-15T12:03:12;11.43;;;5.38;;
20290;SDS011;10304;51.074;13.754;2024-01-15T12:05:39;9.60;;;4.95;;
20290;SDS011;10304;51.074;13.754;2024-01-15T12:08:08;11.80;;;5.68;;
20290;SDS011;10304;51.074;13.754;2024-01-15T12:10:39;13.15;;;5.20;;
20290;SDS011;10304;51.074;13.754;2024-01-15T12:13:11;9.02;;;5.05;;
20290;SDS011;10304;51.074;13.754;2024-01-15T12:15:40;9.65;;;5.18;;
20290;SDS011;10304;51.074;13.754;2024-01-15T12:18:11;10.70;;;5.05;;
20290;SDS011;10304;51.074;13.754;2024-01-15T12:20:40;9.30;;;5.40;;
20290;SDS011;10304;51.074;13.754;2024-01-15T12:23:09;9.05;;;5.30;;
20290;SDS011;10304;51.074;13.754;2024-01-15T12:25:37;10.40;;;5.47;;
20290;SDS011;10304;51.074;13.754;2024-01-15T12:28:06;11.48;;;4.85;;
20290;SDS011;10304;51.074;13.754;2024-01-15T12:30:34;11.45;;;5.28;;
20290;SDS011;10304;51.074;13.754;2024-01-15T12:33:03;11.65;;;5.30;;
20290;SDS011;10304;51.074;13.754;2024-01-15T12:35:33;10.77;;;5.97;;
20290;SDS011;10304;51.074;13.754;2024-01-15T12:38:01;9.48;;;4.75;;
20290;SDS011;10304;51.074;13.754;2024-01-15T12:40:32;9.30;;;4.95;;
20290;SDS011;10304;51.074;13.754;2024-01-15T12:43:03;8.95;;;4.90;;
20290;SDS011;10304;51.074;13.754;2024-01-15T12:45:34;10.55;;;4.45;;
20290;SDS011;10304;51.074;13.754;2024-01-15T12:48:03;11.95;;;5.25;;
20290;SDS011;10304;51.074;13.754;2024-01-15T12:50:33;8.63;;;5.43;;
20290;SDS011;10304;51.074;13.754;2024-01-15T12:53:01;9.25;;;5.25;;
20290;SDS011;10304;51.074;13.754;2024-01-15T12:55:29;11.10;;;4.82;;
20290;SDS011;10304;51.074;13.754;2024-01-15T12:57:56;9.07;;;4.95;;
20290;SDS011;10304;51.074;13.754;2024-01-15T13:00:23;6.85;;;4.65;;
20290;SDS011;10304;51.074;13.754;2024-01-15T13:02:53;10.93;;;5.20;;
20290;SDS011;10304;51.074;13.754;2024-01-15T13:05:21;8.93;;;5.15;;
20290;SDS011;10304;51.074;13.754;2024-01-15T13:07:50;9.70;;;5.35;;
20290;SDS011;10304;51.074;13.754;2024-01-15T13:10:18;10.40;;;4.95;;
20290;SDS011;10304;51.074;13.754;2024-01-15T13:12:45;9.43;;;5.43;;
20290;SDS011;10304;51.074;13.754;2024-01-15T13:15:12;9.57;;;5.07;;
20290;SDS011;10304;51.074;13.754;2024-01-15T13:17:41;9.68;;;5.60;;
20290;SDS011;10304;51.074;13.754;2024-01-15T13:20:10;9.65;;;5.13;;
20290;SDS011;10304;51.074;13.754;2024-01-15T13:22:39;10.30;;;4.97;;
20290;SDS011;10304;51.074;13.754;2024-01-15T13:25:11;8.40;;;5.18;;
20290;SDS011;10304;51.074;13.754;2024-01-15T13:27:38;10.18;;;5.30;;
20290;SDS011;10304;51.074;13.754;2024-01-15T13:30:07;11.25;;;5.50;;
20290;SDS011;10304;51.074;13.754;2024-01-15T13:32:37;10.15;;;5.45;;
20290;SDS011;10304;51.074;13.754;2024-01-15T13:35:04;9.63;;;5.18;;
20290;SDS011;10304;51.074;13.754;2024-01-15T13:37:36;8.13;;;4.88;;
20290;SDS011;10304;51.074;13.754;2024-01-15T13:40:05;9.00;;;4.78;;
20290;SDS011;10304;51.074;13.754;2024-01-15T13:42:34;11.93;;;5.70;;
20290;SDS011;10304;51.074;13.754;2024-01-15T13:45:06;9.57;;;5.38;;
20290;SDS011;10304;51.074;13.754;2024-01-15T13:47:34;9.88;;;5.32;;
20290;SDS011;10304;51.074;13.754;2024-01-15T13:50:02;10.90;;;6.00;;
20290;SDS011;10304;51.074;13.754;2024-01-15T13:52:30;11.60;;;5.43;;
20290;SDS011;10304;51.074;13.754;2024-01-15T13:54:57;9.18;;;5.50;;
20290;SDS011;10304;51.074;13.754;2024-01-15T13:57:25;13.98;;;6.05;;
20290;SDS011;10304;51.074;13.754;2024-01-15T13:59:52;10.73;;;5.45;;
20290;SDS011;10304;51.074;13.754;2024-01-15T14:02:19;14.05;;;5.43;;
20290;SDS011;10304;51.074;13.754;2024-01-15T14:04:49;12.33;;;6.50;;
20290;SDS011;10304;51.074;13.754;2024-01-15T14:07:16;10.45;;;5.78;;
20290;SDS011;10304;51.074;13.754;2024-01-15T14:09:44;11.43;;;6.27;;
20290;SDS011;10304;51.074;13.754;2024-01-15T14:12:11;13.23;;;6.87;;
20290;SDS011;10304;51.074;13.754;2024-01-15T14:14:39;11.00;;;6.30;;
20290;SDS011;10304;51.074;13.754;2024-01-15T14:17:07;9.57;;;5.93;;
20290;SDS011;10304;51.074;13.754;2024-01-15T14:19:34;16.87;;;6.87;;
20290;SDS011;10304;51.074;13.754;2024-01-15T14:22:03;10.63;;;5.50;;
20290;SDS011;10304;51.074;13.754;2024-01-15T14:24:30;12.60;;;6.70;;
20290;SDS011;10304;51.074;13.754;2024-01-15T14:26:57;12.85;;;5.78;;
20290;SDS011;10304;51.074;13.754;2024-01-15T14:29:25;9.87;;;5.80;;
20290;SDS011;10304;51.074;13.754;2024-01-15T14:31:53;12.13;;;5.50;;
20290;SDS011;10304;51.074;13.754;2024-01-15T14:34:22;13.10;;;5.57;;
20290;SDS011;10304;51.074;13.754;2024-01-15T14:36:51;10.47;;;5.70;;
20290;SDS011;10304;51.074;13.754;2024-01-15T14:39:24;10.80;;;6.30;;
20290;SDS011;10304;51.074;13.754;2024-01-15T14:41:55;10.77;;;5.80;;